Birch River, West Virginia
Current Conditions -  °F | °C
As of 2:15 AM on Sunday 26 Oct 2014 (Local Time) from KW22 Reporting Station
Clear Clear  
Wind Chill: 55°   Ceiling: Unl
Heat Index: 55°   Visibility: 10mi
Dew Point: 45°   Wind: 8mph
Humidity: 67%   Direction: 260°W
Pressure: 29.86"   Gusts: NA
Location:  38.5°N, 80.75°W
Report Text: KW22 260615Z AUTO 26007KT 10SM CLR 13/07 A2986 RMK AO2
Loading
Personal Weather Stations






























Interactive Weather Map New forecast layout! Learn more

10-Day Weather Forecast

Advertisements
Track Severe Weather on mobile